Time;durP1;ratioP1;P1;durP2;ratioP2;P2;SDS_P1;SDS_P2;PMS_P1;PMS_P2;Temp;Humidity;BMP_temperature;BMP_pressure;BME280_temperature;BME280_humidity;BME280_pressure;Samples;Min_cycle;Max_cycle;Signal;HPM_P1;HPM_P2
2022/05/04 00:00:46;;;;;;;11.57;6.10;;;;;;;;;;5023656;28;20109;-58
2022/05/04 00:03:12;;;;;;;11.10;6.13;;;;;;;;;;5024402;28;20028;-57
2022/05/04 00:05:38;;;;;;;10.95;5.95;;;;;;;;;;5022484;28;20022;-57
2022/05/04 00:08:04;;;;;;;13.45;5.78;;;;;;;;;;5027087;28;20151;-57
2022/05/04 00:10:31;;;;;;;16.83;6.45;;;;;;;;;;5023869;28;20037;-57
2022/05/04 00:12:57;;;;;;;14.02;5.85;;;;;;;;;;5023956;28;20036;-57
2022/05/04 00:15:23;;;;;;;20.02;6.13;;;;;;;;;;5022323;28;20077;-57
2022/05/04 00:17:49;;;;;;;10.55;6.05;;;;;;;;;;5021469;28;20429;-57
2022/05/04 00:20:15;;;;;;;12.02;5.32;;;;;;;;;;5019648;28;20061;-58
2022/05/04 00:22:41;;;;;;;10.60;5.82;;;;;;;;;;5026205;28;20037;-57
2022/05/04 00:25:08;;;;;;;15.95;6.00;;;;;;;;;;5022231;28;20416;-57
2022/05/04 00:27:34;;;;;;;14.55;6.68;;;;;;;;;;5019076;28;20512;-56
2022/05/04 00:30:00;;;;;;;10.98;6.13;;;;;;;;;;5025691;28;20124;-56
2022/05/04 00:32:27;;;;;;;13.45;6.43;;;;;;;;;;5022882;28;20088;-57
2022/05/04 00:34:53;;;;;;;15.02;5.88;;;;;;;;;;5025572;28;20580;-56
2022/05/04 00:37:19;;;;;;;10.02;6.20;;;;;;;;;;5024119;28;20021;-56
2022/05/04 00:39:47;;;;;;;14.45;6.20;;;;;;;;;;5023301;28;20048;-56
2022/05/04 00:42:14;;;;;;;14.60;6.13;;;;;;;;;;5021335;28;20456;-56
2022/05/04 00:44:41;;;;;;;11.05;6.50;;;;;;;;;;5025829;28;20453;-57
2022/05/04 00:47:07;;;;;;;13.23;5.90;;;;;;;;;;5025672;28;20021;-58
2022/05/04 00:49:33;;;;;;;11.02;6.25;;;;;;;;;;5022960;28;20018;-57
2022/05/04 00:52:00;;;;;;;12.93;6.97;;;;;;;;;;5025025;28;20029;-56
2022/05/04 00:54:26;;;;;;;15.50;6.47;;;;;;;;;;5026147;28;20136;-57
2022/05/04 00:56:53;;;;;;;16.70;6.68;;;;;;;;;;5023341;28;20026;-57
2022/05/04 00:59:21;;;;;;;12.80;6.47;;;;;;;;;;5021699;28;20079;-57
2022/05/04 01:01:47;;;;;;;16.63;6.88;;;;;;;;;;5020068;28;20539;-56
2022/05/04 01:04:13;;;;;;;14.40;6.60;;;;;;;;;;5023984;28;20026;-57
2022/05/04 01:06:39;;;;;;;11.40;6.25;;;;;;;;;;5025149;28;20366;-58
2022/05/04 01:09:05;;;;;;;12.10;6.78;;;;;;;;;;5023702;28;20689;-58
2022/05/04 01:11:31;;;;;;;14.95;6.80;;;;;;;;;;5021523;28;20077;-58
2022/05/04 01:13:58;;;;;;;14.60;6.53;;;;;;;;;;5017742;28;20172;-57
2022/05/04 01:16:24;;;;;;;17.90;6.80;;;;;;;;;;5022708;28;20060;-57
2022/05/04 01:18:50;;;;;;;15.27;7.10;;;;;;;;;;5021016;28;20017;-56
2022/05/04 01:21:16;;;;;;;13.85;6.63;;;;;;;;;;5024779;28;20025;-56
2022/05/04 01:23:43;;;;;;;17.92;6.80;;;;;;;;;;5021358;28;20120;-58
2022/05/04 01:26:09;;;;;;;17.50;7.18;;;;;;;;;;5025549;28;20372;-56
2022/05/04 01:28:35;;;;;;;17.65;7.28;;;;;;;;;;5022751;28;20052;-57
2022/05/04 01:31:01;;;;;;;16.92;7.55;;;;;;;;;;5025131;28;20574;-57
2022/05/04 01:33:27;;;;;;;14.52;7.13;;;;;;;;;;5022120;28;20029;-57
2022/05/04 01:35:53;;;;;;;17.02;7.30;;;;;;;;;;5023947;28;20029;-57
2022/05/04 01:38:19;;;;;;;17.42;6.40;;;;;;;;;;5024303;28;20488;-57
2022/05/04 01:40:45;;;;;;;15.07;7.13;;;;;;;;;;5024255;28;20033;-56
2022/05/04 01:43:11;;;;;;;16.38;7.30;;;;;;;;;;5023311;28;20032;-57
2022/05/04 01:45:37;;;;;;;18.45;7.18;;;;;;;;;;5024006;28;20043;-56
2022/05/04 01:48:03;;;;;;;18.65;7.15;;;;;;;;;;5022743;28;20397;-57
2022/05/04 01:50:29;;;;;;;18.48;7.60;;;;;;;;;;5025358;28;20470;-58
2022/05/04 01:52:55;;;;;;;13.52;7.40;;;;;;;;;;5023910;28;20112;-58
2022/05/04 01:55:22;;;;;;;16.08;6.70;;;;;;;;;;5019479;28;20022;-56
2022/05/04 01:57:48;;;;;;;15.27;7.53;;;;;;;;;;5021391;28;20457;-58
2022/05/04 02:00:14;;;;;;;14.35;7.30;;;;;;;;;;5026256;28;20021;-56
2022/05/04 02:02:40;;;;;;;17.50;7.20;;;;;;;;;;5023426;28;20112;-57
2022/05/04 02:05:06;;;;;;;17.15;7.45;;;;;;;;;;5027916;28;20105;-57
2022/05/04 02:07:34;;;;;;;12.52;7.35;;;;;;;;;;5022355;28;20517;-58
2022/05/04 02:10:00;;;;;;;16.40;7.18;;;;;;;;;;5020677;28;21486;-58
2022/05/04 02:12:27;;;;;;;16.45;7.13;;;;;;;;;;5023296;28;20023;-56
2022/05/04 02:14:53;;;;;;;16.55;7.10;;;;;;;;;;5018479;28;20099;-57
2022/05/04 02:17:19;;;;;;;16.38;7.32;;;;;;;;;;5019979;28;20056;-57
2022/05/04 02:19:45;;;;;;;17.42;7.20;;;;;;;;;;5022220;28;20537;-56
2022/05/04 02:22:11;;;;;;;20.95;7.88;;;;;;;;;;5022190;28;20033;-56
2022/05/04 02:24:37;;;;;;;19.63;7.30;;;;;;;;;;5022537;28;20021;-57
2022/05/04 02:27:03;;;;;;;16.48;6.95;;;;;;;;;;5022179;28;20051;-57
2022/05/04 02:29:29;;;;;;;17.83;7.95;;;;;;;;;;5021870;28;20056;-57
2022/05/04 02:31:58;;;;;;;17.48;7.35;;;;;;;;;;5020175;28;20258;-58
2022/05/04 02:34:24;;;;;;;14.52;7.30;;;;;;;;;;5019039;28;20023;-57
2022/05/04 02:39:35;;;;;;;16.70;7.88;;;;;;;;;;5022337;28;20045;-56
2022/05/04 02:42:01;;;;;;;16.38;7.97;;;;;;;;;;5022477;28;20029;-57
2022/05/04 02:44:27;;;;;;;18.38;7.22;;;;;;;;;;5022800;28;20074;-56
2022/05/04 02:46:53;;;;;;;15.10;7.60;;;;;;;;;;5023284;28;20108;-57
2022/05/04 02:49:19;;;;;;;14.88;6.97;;;;;;;;;;5022797;28;20037;-57
2022/05/04 02:51:45;;;;;;;17.10;8.23;;;;;;;;;;5020903;28;20657;-57
2022/05/04 02:54:11;;;;;;;14.07;7.40;;;;;;;;;;5021729;28;21159;-56
2022/05/04 02:56:37;;;;;;;15.50;7.68;;;;;;;;;;5023816;28;20029;-56
2022/05/04 02:59:03;;;;;;;19.38;7.82;;;;;;;;;;5023476;28;20029;-56
2022/05/04 03:04:14;;;;;;;15.05;6.97;;;;;;;;;;5025854;28;20041;-57
2022/05/04 03:06:40;;;;;;;17.50;7.28;;;;;;;;;;5027408;28;20435;-56
2022/05/04 03:09:07;;;;;;;20.63;7.80;;;;;;;;;;5025398;28;20100;-57
2022/05/04 03:14:20;;;;;;;19.27;7.30;;;;;;;;;;5019975;28;20032;-57
2022/05/04 03:16:46;;;;;;;19.00;8.35;;;;;;;;;;5023548;28;20424;-57
2022/05/04 03:19:12;;;;;;;18.05;7.10;;;;;;;;;;5023256;28;20079;-57
2022/05/04 03:21:38;;;;;;;14.43;6.60;;;;;;;;;;5024549;28;20029;-56
2022/05/04 03:24:04;;;;;;;19.30;7.47;;;;;;;;;;5026472;28;20056;-56
2022/05/04 03:26:30;;;;;;;17.88;7.93;;;;;;;;;;5026803;28;20033;-58
2022/05/04 03:28:56;;;;;;;20.88;8.30;;;;;;;;;;5026493;28;20041;-58
2022/05/04 03:31:23;;;;;;;18.35;7.70;;;;;;;;;;5025995;28;20067;-58
2022/05/04 03:33:49;;;;;;;15.85;7.72;;;;;;;;;;5024613;28;20022;-57
2022/05/04 03:36:15;;;;;;;19.70;7.65;;;;;;;;;;5025962;28;20025;-56
2022/05/04 03:38:41;;;;;;;17.35;7.85;;;;;;;;;;5025252;28;20021;-57
2022/05/04 03:41:07;;;;;;;14.85;6.95;;;;;;;;;;5025611;28;20148;-57
2022/05/04 03:43:33;;;;;;;20.88;7.95;;;;;;;;;;5021532;28;20142;-57
2022/05/04 03:46:18;;;;;;;19.50;7.15;;;;;;;;;;5025398;28;20031;-58
2022/05/04 03:48:45;;;;;;;16.90;8.07;;;;;;;;;;5023624;28;20392;-57
2022/05/04 03:51:13;;;;;;;21.73;7.55;;;;;;;;;;5023180;28;20500;-57
2022/05/04 03:53:39;;;;;;;18.98;7.90;;;;;;;;;;5026530;28;20056;-57
2022/05/04 03:56:05;;;;;;;17.13;7.35;;;;;;;;;;5023936;28;20022;-58
2022/05/04 03:58:31;;;;;;;16.90;7.78;;;;;;;;;;5023777;28;20512;-57
2022/05/04 04:00:57;;;;;;;17.63;7.35;;;;;;;;;;5025547;28;20021;-58
2022/05/04 04:03:23;;;;;;;17.23;7.28;;;;;;;;;;5025166;28;20104;-57
2022/05/04 04:05:49;;;;;;;18.52;7.53;;;;;;;;;;5024289;28;20029;-57
2022/05/04 04:08:15;;;;;;;17.58;7.47;;;;;;;;;;5025040;28;20033;-57
2022/05/04 04:10:41;;;;;;;19.52;8.38;;;;;;;;;;5025969;28;20030;-57
2022/05/04 04:13:07;;;;;;;21.92;8.10;;;;;;;;;;5021546;28;20107;-57
2022/05/04 04:15:33;;;;;;;16.63;8.02;;;;;;;;;;5022106;28;20030;-57
2022/05/04 04:17:59;;;;;;;15.23;7.35;;;;;;;;;;5025817;28;20105;-57
2022/05/04 04:23:10;;;;;;;23.75;7.88;;;;;;;;;;5024630;28;20029;-57
2022/05/04 04:25:37;;;;;;;14.75;7.43;;;;;;;;;;5026032;28;20022;-57
2022/05/04 04:28:03;;;;;;;16.98;7.57;;;;;;;;;;5024763;28;20514;-57
2022/05/04 04:30:29;;;;;;;22.55;8.50;;;;;;;;;;5025302;28;20034;-56
2022/05/04 04:32:55;;;;;;;20.33;7.97;;;;;;;;;;5022584;28;20670;-56
2022/05/04 04:35:21;;;;;;;17.92;8.25;;;;;;;;;;5026434;28;20033;-58
2022/05/04 04:37:46;;;;;;;15.02;7.82;;;;;;;;;;5025833;28;20041;-57
2022/05/04 04:40:12;;;;;;;19.92;7.72;;;;;;;;;;5024205;28;20108;-57
2022/05/04 04:42:38;;;;;;;18.63;7.63;;;;;;;;;;5023284;28;20021;-57
2022/05/04 04:45:05;;;;;;;18.50;7.55;;;;;;;;;;5023260;28;20121;-57
2022/05/04 04:47:31;;;;;;;20.30;7.60;;;;;;;;;;5022914;28;20120;-58
2022/05/04 04:49:57;;;;;;;17.55;8.13;;;;;;;;;;5023850;28;20057;-57
2022/05/04 04:52:24;;;;;;;20.50;7.95;;;;;;;;;;5020938;28;20517;-57
2022/05/04 04:54:50;;;;;;;15.90;7.55;;;;;;;;;;5023685;28;20477;-57
2022/05/04 04:57:16;;;;;;;21.85;8.02;;;;;;;;;;5018836;28;20032;-57
2022/05/04 04:59:43;;;;;;;17.85;7.90;;;;;;;;;;5022310;28;20013;-57
2022/05/04 05:02:09;;;;;;;23.10;8.98;;;;;;;;;;5023422;28;20032;-56
2022/05/04 05:04:35;;;;;;;16.45;8.00;;;;;;;;;;5025395;28;20025;-56
2022/05/04 05:07:01;;;;;;;20.58;8.20;;;;;;;;;;5025479;28;20021;-57
2022/05/04 05:09:27;;;;;;;22.85;8.30;;;;;;;;;;5024887;28;20663;-56
2022/05/04 05:11:53;;;;;;;23.33;8.48;;;;;;;;;;5022782;28;20032;-57
2022/05/04 05:17:05;;;;;;;18.13;7.88;;;;;;;;;;5021732;28;20027;-56
2022/05/04 05:19:31;;;;;;;18.60;8.52;;;;;;;;;;5024364;28;20029;-58
2022/05/04 05:21:57;;;;;;;22.23;9.05;;;;;;;;;;5025080;28;20273;-57
2022/05/04 05:24:23;;;;;;;21.63;9.05;;;;;;;;;;5023880;28;20041;-57
2022/05/04 05:26:49;;;;;;;21.00;8.75;;;;;;;;;;5023923;28;20420;-58
2022/05/04 05:29:15;;;;;;;18.85;8.65;;;;;;;;;;5025244;28;20021;-57
2022/05/04 05:31:41;;;;;;;17.92;8.30;;;;;;;;;;5021585;28;20029;-56
2022/05/04 05:34:07;;;;;;;16.67;8.38;;;;;;;;;;5023551;28;20543;-57
2022/05/04 05:36:33;;;;;;;18.95;8.63;;;;;;;;;;5025271;28;20389;-56
2022/05/04 05:38:59;;;;;;;18.15;8.57;;;;;;;;;;5023653;28;20025;-57
2022/05/04 05:41:25;;;;;;;19.63;9.02;;;;;;;;;;5022178;28;20105;-58
2022/05/04 05:43:52;;;;;;;21.48;9.20;;;;;;;;;;5022347;28;20484;-57
2022/05/04 05:46:18;;;;;;;20.15;9.23;;;;;;;;;;5022477;28;20460;-58
2022/05/04 05:48:47;;;;;;;22.05;8.82;;;;;;;;;;5022648;28;20623;-57
2022/05/04 05:51:13;;;;;;;17.17;8.90;;;;;;;;;;5021844;28;20429;-57
2022/05/04 05:53:39;;;;;;;19.48;9.30;;;;;;;;;;5024327;28;20139;-58
2022/05/04 05:56:05;;;;;;;19.88;8.65;;;;;;;;;;5023970;28;20253;-57
2022/05/04 05:58:31;;;;;;;22.20;9.60;;;;;;;;;;5019842;28;20437;-57
2022/05/04 06:00:57;;;;;;;23.67;9.70;;;;;;;;;;5021053;28;20104;-56
2022/05/04 06:03:23;;;;;;;25.50;9.38;;;;;;;;;;5025274;28;20619;-58
2022/05/04 06:05:49;;;;;;;20.90;9.93;;;;;;;;;;5025204;28;20065;-57
2022/05/04 06:08:14;;;;;;;25.17;9.85;;;;;;;;;;5024810;28;20080;-58
2022/05/04 06:10:40;;;;;;;22.95;9.75;;;;;;;;;;5025749;28;20026;-58
2022/05/04 06:13:07;;;;;;;21.13;9.82;;;;;;;;;;5025173;28;20527;-57
2022/05/04 06:15:33;;;;;;;16.30;9.23;;;;;;;;;;5022363;28;20026;-57
2022/05/04 06:18:01;;;;;;;25.25;10.38;;;;;;;;;;5025541;28;20477;-57
2022/05/04 06:20:27;;;;;;;28.25;10.60;;;;;;;;;;5022480;28;20037;-58
2022/05/04 06:22:53;;;;;;;23.20;9.45;;;;;;;;;;5024492;28;20034;-57
2022/05/04 06:25:20;;;;;;;19.40;9.70;;;;;;;;;;5024893;28;20029;-56
2022/05/04 06:27:45;;;;;;;21.20;10.65;;;;;;;;;;5024938;28;20037;-58
2022/05/04 06:35:41;;;;;;;30.67;10.88;;;;;;;;;;5026440;28;20040;-57
2022/05/04 06:38:07;;;;;;;20.48;9.98;;;;;;;;;;5029123;28;20026;-56
2022/05/04 06:40:33;;;;;;;20.13;9.77;;;;;;;;;;5025365;28;20464;-57
2022/05/04 06:42:59;;;;;;;27.92;9.93;;;;;;;;;;5026316;28;20556;-57
2022/05/04 06:45:25;;;;;;;22.58;10.18;;;;;;;;;;5030348;28;20018;-56
2022/05/04 06:47:51;;;;;;;23.27;10.32;;;;;;;;;;5029976;28;20036;-57
2022/05/04 06:50:18;;;;;;;23.00;9.43;;;;;;;;;;5030044;28;20453;-57
2022/05/04 06:52:44;;;;;;;23.58;9.82;;;;;;;;;;5029664;28;20042;-58
2022/05/04 06:55:10;;;;;;;22.55;10.55;;;;;;;;;;5029520;28;20362;-57
2022/05/04 06:57:36;;;;;;;19.42;10.13;;;;;;;;;;5029050;28;20025;-57
2022/05/04 07:00:05;;;;;;;22.52;9.85;;;;;;;;;;5028186;28;20064;-57
2022/05/04 07:02:35;;;;;;;23.58;10.10;;;;;;;;;;5025133;28;20124;-58
2022/05/04 07:05:04;;;;;;;24.27;10.15;;;;;;;;;;5029387;28;20457;-57
2022/05/04 07:07:30;;;;;;;24.00;10.45;;;;;;;;;;5029747;28;20546;-56
2022/05/04 07:09:58;;;;;;;29.13;11.85;;;;;;;;;;5029165;28;20449;-57
2022/05/04 07:12:24;;;;;;;21.90;11.07;;;;;;;;;;5028697;28;20389;-57
2022/05/04 07:14:51;;;;;;;22.92;10.27;;;;;;;;;;5028489;28;20488;-56
2022/05/04 07:17:18;;;;;;;24.63;11.25;;;;;;;;;;5028076;28;20026;-57
2022/05/04 07:19:44;;;;;;;26.35;11.38;;;;;;;;;;5026232;28;20436;-58
2022/05/04 07:22:09;;;;;;;27.13;10.80;;;;;;;;;;5029276;28;20030;-58
2022/05/04 07:24:36;;;;;;;27.08;11.43;;;;;;;;;;5028590;28;20495;-56
2022/05/04 07:27:02;;;;;;;26.80;11.35;;;;;;;;;;5027995;28;20095;-57
2022/05/04 07:29:27;;;;;;;22.45;10.82;;;;;;;;;;5029268;28;20057;-56
2022/05/04 07:31:53;;;;;;;23.58;11.05;;;;;;;;;;5025621;28;20025;-57
2022/05/04 07:34:19;;;;;;;25.35;11.43;;;;;;;;;;5028510;28;20030;-57
2022/05/04 07:36:46;;;;;;;23.88;11.77;;;;;;;;;;5028946;28;20072;-57
2022/05/04 07:44:41;;;;;;;25.63;11.48;;;;;;;;;;5029392;28;20072;-57
2022/05/04 07:47:07;;;;;;;25.45;11.00;;;;;;;;;;5027780;28;20088;-57
2022/05/04 07:49:33;;;;;;;24.85;11.45;;;;;;;;;;5027266;28;20457;-57
2022/05/04 07:51:59;;;;;;;18.45;10.52;;;;;;;;;;5028914;28;20116;-57
2022/05/04 07:54:28;;;;;;;30.00;10.30;;;;;;;;;;5028925;28;20026;-58
2022/05/04 07:56:54;;;;;;;21.65;10.52;;;;;;;;;;5027235;28;20377;-57
2022/05/04 07:59:20;;;;;;;21.23;10.85;;;;;;;;;;5024783;28;20499;-57
2022/05/04 08:04:30;;;;;;;25.15;10.88;;;;;;;;;;5028317;28;20075;-57
2022/05/04 08:06:56;;;;;;;21.60;11.10;;;;;;;;;;5027207;28;20037;-57
2022/05/04 08:09:22;;;;;;;22.25;11.00;;;;;;;;;;5027255;28;20052;-56
2022/05/04 08:11:48;;;;;;;22.77;11.35;;;;;;;;;;5027186;28;20075;-56
2022/05/04 08:14:16;;;;;;;24.85;11.80;;;;;;;;;;5028777;28;20370;-57
2022/05/04 08:16:42;;;;;;;24.67;12.15;;;;;;;;;;5028653;28;20033;-56
2022/05/04 08:19:08;;;;;;;21.52;11.27;;;;;;;;;;5026190;28;20026;-57
2022/05/04 08:21:36;;;;;;;24.33;11.32;;;;;;;;;;5028760;28;20583;-58
2022/05/04 08:24:02;;;;;;;20.42;10.80;;;;;;;;;;5028250;28;20025;-56
2022/05/04 08:26:28;;;;;;;27.52;11.77;;;;;;;;;;5028063;28;20041;-56
2022/05/04 08:28:54;;;;;;;22.63;11.35;;;;;;;;;;5027513;28;20040;-56
2022/05/04 08:31:21;;;;;;;25.00;11.88;;;;;;;;;;5027632;28;20472;-57
2022/05/04 08:33:48;;;;;;;20.80;11.02;;;;;;;;;;5027477;28;20032;-57
2022/05/04 08:36:14;;;;;;;26.13;10.93;;;;;;;;;;5028159;28;20026;-56
2022/05/04 08:38:40;;;;;;;19.67;10.50;;;;;;;;;;5027807;28;20025;-57
2022/05/04 08:41:07;;;;;;;22.90;10.82;;;;;;;;;;5022476;28;20028;-56
2022/05/04 08:43:34;;;;;;;20.30;10.43;;;;;;;;;;5025964;28;20246;-56
2022/05/04 08:46:00;;;;;;;23.17;10.95;;;;;;;;;;5028057;28;20505;-58
2022/05/04 08:48:27;;;;;;;20.10;10.23;;;;;;;;;;5026995;28;20032;-57
2022/05/04 08:50:54;;;;;;;26.58;10.60;;;;;;;;;;5027453;28;20025;-56
2022/05/04 08:53:20;;;;;;;15.10;9.73;;;;;;;;;;5026824;28;20025;-57
2022/05/04 08:55:47;;;;;;;23.52;10.65;;;;;;;;;;5027459;28;20057;-57
2022/05/04 08:58:13;;;;;;;22.98;10.63;;;;;;;;;;5026352;28;20541;-57
2022/05/04 09:00:40;;;;;;;22.17;10.63;;;;;;;;;;5027353;28;20025;-56
2022/05/04 09:03:09;;;;;;;24.92;10.32;;;;;;;;;;5026123;28;20535;-56
2022/05/04 09:05:45;;;;;;;23.30;10.23;;;;;;;;;;5026950;28;20025;-56
2022/05/04 09:08:11;;;;;;;20.83;10.38;;;;;;;;;;5027118;28;20937;-57
2022/05/04 09:10:38;;;;;;;22.33;9.75;;;;;;;;;;5026926;28;20025;-58
2022/05/04 09:13:05;;;;;;;25.73;10.07;;;;;;;;;;5025290;28;20048;-57
2022/05/04 09:15:32;;;;;;;20.27;10.20;;;;;;;;;;5024585;28;20559;-57
2022/05/04 09:18:01;;;;;;;21.08;10.07;;;;;;;;;;5023371;28;20028;-56
2022/05/04 09:23:18;;;;;;;23.85;10.27;;;;;;;;;;5027030;28;20701;-58
2022/05/04 09:25:44;;;;;;;24.65;10.50;;;;;;;;;;5024774;28;20099;-57
2022/05/04 09:28:14;;;;;;;22.42;9.45;;;;;;;;;;5025879;28;20466;-57
2022/05/04 09:30:47;;;;;;;23.40;10.32;;;;;;;;;;5027207;28;20033;-57
2022/05/04 09:33:21;;;;;;;18.90;10.13;;;;;;;;;;5026460;28;20033;-57
2022/05/04 09:35:47;;;;;;;20.38;10.35;;;;;;;;;;5025216;28;20477;-56
2022/05/04 09:46:36;;;;;;;20.40;9.25;;;;;;;;;;5026843;28;20064;-57
2022/05/04 09:49:13;;;;;;;21.80;8.68;;;;;;;;;;5025621;28;20034;-57
2022/05/04 09:51:39;;;;;;;20.55;9.93;;;;;;;;;;5026909;28;20489;-56
2022/05/04 09:54:16;;;;;;;22.67;9.20;;;;;;;;;;5026665;28;20068;-57
2022/05/04 09:56:44;;;;;;;14.98;9.45;;;;;;;;;;5024532;28;20037;-56
2022/05/04 09:59:12;;;;;;;19.90;9.35;;;;;;;;;;5023835;28;20018;-57
2022/05/04 10:01:38;;;;;;;20.58;9.32;;;;;;;;;;5026161;28;20238;-57
2022/05/04 10:04:04;;;;;;;19.50;8.45;;;;;;;;;;5025709;28;20026;-56
2022/05/04 10:06:31;;;;;;;25.08;9.75;;;;;;;;;;5026410;28;20036;-57
2022/05/04 10:08:57;;;;;;;18.83;8.60;;;;;;;;;;5026341;28;20033;-57
2022/05/04 10:11:23;;;;;;;16.15;8.70;;;;;;;;;;5020342;28;20449;-57
2022/05/04 10:13:53;;;;;;;20.77;9.75;;;;;;;;;;5025731;28;20192;-57
2022/05/04 10:16:19;;;;;;;17.08;9.02;;;;;;;;;;5027116;28;20018;-57
2022/05/04 10:18:46;;;;;;;18.40;9.07;;;;;;;;;;5025231;28;20014;-56
2022/05/04 10:21:13;;;;;;;18.58;8.68;;;;;;;;;;5025521;28;20037;-56
2022/05/04 10:23:44;;;;;;;21.83;8.90;;;;;;;;;;5025777;28;20049;-57
2022/05/04 10:26:13;;;;;;;16.77;7.85;;;;;;;;;;5025873;28;20758;-57
2022/05/04 10:30:30;;;;;;;14.57;8.00;;;;;;;;;;5019038;28;20041;-57
2022/05/04 10:31:28;;;;;;;16.10;8.48;;;;;;;;;;5025525;28;20125;-55
2022/05/04 10:33:56;;;;;;;19.48;7.82;;;;;;;;;;5025931;28;20132;-57
2022/05/04 10:36:29;;;;;;;15.30;8.85;;;;;;;;;;5025982;28;20083;-56
2022/05/04 10:38:56;;;;;;;17.48;8.55;;;;;;;;;;5026192;28;20428;-57
2022/05/04 10:41:43;;;;;;;14.57;8.10;;;;;;;;;;5020758;28;20061;-56
2022/05/04 10:44:10;;;;;;;15.55;7.90;;;;;;;;;;5018015;28;20021;-58
2022/05/04 10:46:38;;;;;;;17.80;8.98;;;;;;;;;;5025593;28;20533;-58
2022/05/04 10:49:05;;;;;;;17.13;8.10;;;;;;;;;;5025126;28;20055;-57
2022/05/04 10:51:38;;;;;;;18.30;8.95;;;;;;;;;;5023883;28;20022;-57
2022/05/04 10:54:17;;;;;;;14.23;8.13;;;;;;;;;;5025310;28;20053;-57
2022/05/04 10:56:45;;;;;;;15.20;7.85;;;;;;;;;;5025645;28;20492;-57
2022/05/04 10:59:13;;;;;;;21.95;7.93;;;;;;;;;;5025589;28;20028;-57
2022/05/04 11:01:40;;;;;;;20.75;7.80;;;;;;;;;;5025970;28;20029;-57
2022/05/04 11:04:06;;;;;;;12.50;7.18;;;;;;;;;;5025344;28;20120;-58
2022/05/04 11:06:33;;;;;;;13.15;7.53;;;;;;;;;;5025323;28;20195;-56
2022/05/04 11:09:04;;;;;;;14.43;7.32;;;;;;;;;;5025705;28;20033;-57
2022/05/04 11:11:30;;;;;;;19.33;7.72;;;;;;;;;;5025888;28;20056;-58
2022/05/04 11:13:56;;;;;;;16.35;7.63;;;;;;;;;;5026414;28;20396;-57
2022/05/04 11:16:23;;;;;;;17.35;7.47;;;;;;;;;;5024771;28;20022;-57
2022/05/04 11:18:50;;;;;;;12.15;7.28;;;;;;;;;;5023254;28;20032;-56
2022/05/04 11:21:16;;;;;;;19.85;7.22;;;;;;;;;;5025904;28;20494;-57
2022/05/04 11:23:46;;;;;;;14.05;7.28;;;;;;;;;;5027796;28;20693;-56
2022/05/04 11:26:19;;;;;;;13.00;6.57;;;;;;;;;;5029192;28;20029;-57
2022/05/04 11:28:45;;;;;;;15.52;7.03;;;;;;;;;;5027821;28;20100;-56
2022/05/04 11:31:12;;;;;;;13.40;6.78;;;;;;;;;;5029860;28;20633;-57
2022/05/04 11:33:38;;;;;;;12.75;7.05;;;;;;;;;;5029048;28;20017;-58
2022/05/04 11:36:04;;;;;;;15.60;6.53;;;;;;;;;;5029191;28;20472;-56
2022/05/04 11:38:30;;;;;;;12.88;6.97;;;;;;;;;;5028188;28;20105;-56
2022/05/04 11:40:56;;;;;;;12.98;6.15;;;;;;;;;;5029401;28;20453;-57
2022/05/04 11:43:23;;;;;;;11.88;6.70;;;;;;;;;;5029412;28;20409;-57
2022/05/04 11:45:49;;;;;;;14.02;6.45;;;;;;;;;;5029786;28;20041;-56
2022/05/04 11:48:18;;;;;;;10.80;6.07;;;;;;;;;;5027461;28;20638;-57
2022/05/04 11:50:44;;;;;;;13.63;5.95;;;;;;;;;;5028748;28;20306;-57
2022/05/04 11:53:10;;;;;;;10.02;6.15;;;;;;;;;;5028470;28;20477;-57
2022/05/04 11:55:36;;;;;;;10.43;5.57;;;;;;;;;;5029133;28;20036;-57
2022/05/04 11:58:06;;;;;;;10.02;5.43;;;;;;;;;;5023074;28;20088;-58
2022/05/04 12:00:32;;;;;;;9.73;5.75;;;;;;;;;;5024665;28;20046;-56
2022/05/04 12:02:58;;;;;;;13.75;6.10;;;;;;;;;;5028171;28;20397;-57
2022/05/04 12:05:24;;;;;;;15.27;6.47;;;;;;;;;;5028551;28;20040;-57
2022/05/04 12:07:51;;;;;;;13.00;6.47;;;;;;;;;;5028550;28;20034;-57
2022/05/04 12:10:17;;;;;;;12.40;6.22;;;;;;;;;;5026792;28;20029;-57
2022/05/04 12:12:44;;;;;;;15.25;6.72;;;;;;;;;;5026673;28;20037;-57
2022/05/04 12:15:10;;;;;;;12.40;6.72;;;;;;;;;;5028827;28;20030;-58
2022/05/04 12:17:36;;;;;;;13.85;6.50;;;;;;;;;;5026681;28;20033;-57
2022/05/04 12:20:04;;;;;;;11.15;6.45;;;;;;;;;;5027810;28;20444;-57
2022/05/04 12:22:30;;;;;;;15.10;6.47;;;;;;;;;;5027198;28;20026;-57
2022/05/04 12:24:57;;;;;;;14.77;6.68;;;;;;;;;;5028584;28;20025;-57
2022/05/04 12:27:23;;;;;;;13.90;7.05;;;;;;;;;;5026789;28;20112;-57
2022/05/04 12:35:21;;;;;;;13.45;7.00;;;;;;;;;;5027248;28;20087;-58
2022/05/04 12:37:51;;;;;;;13.43;6.60;;;;;;;;;;5028367;28;20469;-57
2022/05/04 12:40:17;;;;;;;10.60;5.85;;;;;;;;;;5021442;28;20029;-58
2022/05/04 12:42:43;;;;;;;11.70;5.80;;;;;;;;;;5024487;28;20382;-58
2022/05/04 12:45:15;;;;;;;9.95;5.75;;;;;;;;;;5022071;28;20017;-56
2022/05/04 12:47:41;;;;;;;12.33;6.07;;;;;;;;;;5021368;28;20038;-57
2022/05/04 12:50:07;;;;;;;13.55;6.22;;;;;;;;;;5027481;28;20021;-56
2022/05/04 12:52:37;;;;;;;11.35;5.88;;;;;;;;;;5027166;28;20033;-57
2022/05/04 12:55:03;;;;;;;14.05;5.60;;;;;;;;;;5027326;28;20410;-58
2022/05/04 12:57:29;;;;;;;9.10;5.07;;;;;;;;;;5027127;28;20428;-57
2022/05/04 12:59:54;;;;;;;9.10;5.15;;;;;;;;;;5027779;28;20013;-58
2022/05/04 13:02:20;;;;;;;11.45;5.35;;;;;;;;;;5025858;28;20722;-58
2022/05/04 13:04:46;;;;;;;11.32;5.53;;;;;;;;;;5027491;28;20033;-57
2022/05/04 13:07:13;;;;;;;9.15;4.65;;;;;;;;;;5027126;28;20037;-57
2022/05/04 13:09:41;;;;;;;11.52;5.60;;;;;;;;;;5027238;28;20025;-57
2022/05/04 13:12:08;;;;;;;16.70;5.18;;;;;;;;;;5025865;28;20029;-57
2022/05/04 13:14:34;;;;;;;9.35;4.85;;;;;;;;;;5027546;28;20061;-57
2022/05/04 13:17:00;;;;;;;9.88;4.85;;;;;;;;;;5025768;28;20053;-57
2022/05/04 13:19:28;;;;;;;9.00;4.88;;;;;;;;;;5025071;28;20445;-57
2022/05/04 13:21:54;;;;;;;13.00;5.18;;;;;;;;;;5027029;28;20056;-57
2022/05/04 13:24:20;;;;;;;11.18;5.32;;;;;;;;;;5026740;28;20073;-57
2022/05/04 13:26:46;;;;;;;12.60;5.35;;;;;;;;;;5024088;28;20112;-57
2022/05/04 13:29:12;;;;;;;11.98;5.75;;;;;;;;;;5020061;28;20030;-58
2022/05/04 13:31:38;;;;;;;12.48;5.95;;;;;;;;;;5027304;28;20033;-59
2022/05/04 13:34:04;;;;;;;12.80;5.72;;;;;;;;;;5026468;28;20659;-57
2022/05/04 13:36:30;;;;;;;10.75;5.78;;;;;;;;;;5026627;28;20040;-57
2022/05/04 13:38:56;;;;;;;13.38;6.13;;;;;;;;;;5026199;28;20079;-57
2022/05/04 13:41:22;;;;;;;10.98;5.78;;;;;;;;;;5026812;28;20386;-58
2022/05/04 13:43:48;;;;;;;11.40;5.38;;;;;;;;;;5025544;28;20029;-57
2022/05/04 13:46:14;;;;;;;13.07;5.65;;;;;;;;;;5026610;28;20033;-57
2022/05/04 13:48:43;;;;;;;11.80;5.97;;;;;;;;;;5026124;28;20037;-58
2022/05/04 13:53:53;;;;;;;10.82;6.25;;;;;;;;;;5027080;28;20039;-58
2022/05/04 13:56:19;;;;;;;10.05;5.60;;;;;;;;;;5024953;28;20120;-58
2022/05/04 13:58:45;;;;;;;10.38;5.20;;;;;;;;;;5023224;28;20021;-58
2022/05/04 14:01:11;;;;;;;12.48;6.10;;;;;;;;;;5021692;28;20110;-56
2022/05/04 14:03:37;;;;;;;10.00;5.38;;;;;;;;;;5025450;28;20645;-57
2022/05/04 14:06:04;;;;;;;12.13;5.35;;;;;;;;;;5025822;28;20029;-58
2022/05/04 14:08:30;;;;;;;14.93;5.32;;;;;;;;;;5026356;28;20488;-58
2022/05/04 14:10:57;;;;;;;12.32;5.60;;;;;;;;;;5026349;28;20505;-59
2022/05/04 14:13:24;;;;;;;14.25;5.60;;;;;;;;;;5024304;28;20033;-57
2022/05/04 14:15:54;;;;;;;11.60;5.70;;;;;;;;;;5026570;28;20029;-56
2022/05/04 14:18:21;;;;;;;11.70;5.90;;;;;;;;;;5024995;28;20388;-57
2022/05/04 14:20:48;;;;;;;12.25;6.32;;;;;;;;;;5024850;28;20032;-57
2022/05/04 14:23:14;;;;;;;12.65;6.93;;;;;;;;;;5025448;28;20080;-58
2022/05/04 14:25:40;;;;;;;12.75;6.05;;;;;;;;;;5025910;28;20074;-58
2022/05/04 14:28:06;;;;;;;14.75;6.32;;;;;;;;;;5024559;28;20120;-58
2022/05/04 14:30:34;;;;;;;9.55;5.32;;;;;;;;;;5024961;28;20349;-57
2022/05/04 14:33:00;;;;;;;10.85;5.68;;;;;;;;;;5025885;28;20053;-57
2022/05/04 14:35:26;;;;;;;8.27;4.68;;;;;;;;;;5025992;28;20441;-56
2022/05/04 14:37:52;;;;;;;11.52;5.93;;;;;;;;;;5024354;28;20030;-57
2022/05/04 14:40:18;;;;;;;10.63;5.28;;;;;;;;;;5022890;28;20447;-58
2022/05/04 14:42:45;;;;;;;10.85;5.47;;;;;;;;;;5022991;28;20096;-58
2022/05/04 14:45:11;;;;;;;14.65;6.40;;;;;;;;;;5017650;28;20014;-57
2022/05/04 14:47:37;;;;;;;13.30;6.82;;;;;;;;;;5025504;28;20064;-57
2022/05/04 14:50:03;;;;;;;11.90;6.32;;;;;;;;;;5025198;28;20037;-57
2022/05/04 14:52:29;;;;;;;12.30;6.45;;;;;;;;;;5025300;28;20034;-57
2022/05/04 14:54:55;;;;;;;19.60;6.32;;;;;;;;;;5026035;28;20372;-57
2022/05/04 14:57:23;;;;;;;10.63;5.10;;;;;;;;;;5025796;28;20432;-56
2022/05/04 14:59:49;;;;;;;10.18;5.60;;;;;;;;;;5029878;28;20048;-58
2022/05/04 15:02:15;;;;;;;11.43;5.60;;;;;;;;;;5029041;28;20065;-57
2022/05/04 15:07:25;;;;;;;13.40;5.50;;;;;;;;;;5029387;28;20040;-58
2022/05/04 15:09:51;;;;;;;14.65;6.43;;;;;;;;;;5023216;28;20037;-57
2022/05/04 15:12:17;;;;;;;15.07;6.32;;;;;;;;;;5029471;28;20117;-57
2022/05/04 15:14:43;;;;;;;10.10;6.18;;;;;;;;;;5029784;28;20091;-58